createdAt,value
2023-04-09T00:00:03.379Z,6.30
2023-04-09T00:01:03.548Z,6.30
2023-04-09T00:02:03.669Z,6.30
2023-04-09T00:03:03.613Z,6.30
2023-04-09T00:04:03.736Z,6.30
2023-04-09T00:05:02.775Z,6.30
2023-04-09T00:06:02.837Z,6.30
2023-04-09T00:07:02.762Z,6.30
2023-04-09T00:08:02.903Z,6.30
2023-04-09T00:09:03.366Z,6.30
2023-04-09T00:10:03.666Z,6.30
2023-04-09T00:11:02.657Z,6.20
2023-04-09T00:12:02.862Z,6.20
2023-04-09T00:13:02.796Z,6.20
2023-04-09T00:14:02.881Z,6.20
2023-04-09T00:15:02.853Z,6.20
2023-04-09T00:16:02.856Z,6.20
2023-04-09T00:17:02.914Z,6.20
2023-04-09T00:18:03.042Z,6.20
2023-04-09T00:19:03.076Z,6.20
2023-04-09T00:20:03.071Z,6.20
2023-04-09T00:21:03.065Z,6.20
2023-04-09T00:22:03.189Z,6.20
2023-04-09T00:23:03.180Z,6.20
2023-04-09T00:24:03.601Z,6.20
2023-04-09T00:25:03.694Z,6.20
2023-04-09T00:26:02.765Z,6.20
2023-04-09T00:27:02.719Z,6.20
2023-04-09T00:28:02.814Z,6.10
2023-04-09T00:29:02.837Z,6.10
2023-04-09T00:30:02.912Z,6.10
2023-04-09T00:31:02.942Z,6.20
2023-04-09T00:32:03.020Z,6.10
2023-04-09T00:33:03.018Z,6.10
2023-04-09T00:34:02.890Z,6.10
2023-04-09T00:35:03.037Z,6.10
2023-04-09T00:36:03.127Z,6.10
2023-04-09T00:37:03.091Z,6.10
2023-04-09T00:38:03.236Z,6.10
2023-04-09T00:39:03.213Z,6.10
2023-04-09T00:40:03.331Z,6.10
2023-04-09T00:41:03.289Z,6.10
2023-04-09T00:42:03.277Z,6.10
2023-04-09T00:43:03.361Z,6.10
2023-04-09T00:44:03.395Z,6.10
2023-04-09T00:45:03.422Z,6.10
2023-04-09T00:46:03.465Z,6.10
2023-04-09T00:47:03.542Z,6.10
2023-04-09T00:48:03.498Z,6.10
2023-04-09T00:49:03.575Z,6.10
2023-04-09T00:50:03.598Z,6.10
2023-04-09T00:51:02.668Z,6.10
2023-04-09T00:52:02.750Z,6.10
2023-04-09T00:53:02.816Z,6.10
2023-04-09T00:54:02.786Z,6.10
2023-04-09T00:55:02.727Z,6.10
2023-04-09T00:56:02.753Z,6.00
2023-04-09T00:57:02.843Z,6.00
2023-04-09T00:58:02.810Z,6.10
2023-04-09T00:59:02.854Z,6.00
2023-04-09T01:00:02.983Z,6.00
2023-04-09T01:01:03.138Z,6.00
2023-04-09T01:02:03.105Z,6.00
2023-04-09T01:03:03.163Z,6.00
2023-04-09T01:04:03.168Z,6.00
2023-04-09T01:05:03.188Z,6.00
2023-04-09T01:06:03.132Z,6.00
2023-04-09T01:07:03.299Z,6.00
2023-04-09T01:08:03.397Z,6.00
2023-04-09T01:09:03.345Z,6.00
2023-04-09T01:10:03.512Z,6.00
2023-04-09T01:11:03.386Z,5.90
2023-04-09T01:12:03.343Z,5.90
2023-04-09T01:13:03.191Z,6.00
2023-04-09T01:14:03.201Z,6.00
2023-04-09T01:15:03.310Z,5.90
2023-04-09T01:16:03.294Z,5.90
2023-04-09T01:17:03.332Z,5.90
2023-04-09T01:18:03.396Z,5.90
2023-04-09T01:19:03.433Z,5.90
2023-04-09T01:20:03.648Z,5.90
2023-04-09T01:21:02.614Z,5.90
2023-04-09T01:22:02.612Z,5.90
2023-04-09T01:23:02.744Z,5.90
2023-04-09T01:24:02.729Z,5.80
2023-04-09T01:25:02.788Z,5.80
2023-04-09T01:26:02.761Z,5.80
2023-04-09T01:27:02.876Z,5.80
2023-04-09T01:28:02.838Z,5.80
2023-04-09T01:29:02.872Z,5.80
2023-04-09T01:30:02.904Z,5.70
2023-04-09T01:31:02.994Z,5.70
2023-04-09T01:32:03.059Z,5.70
2023-04-09T01:33:03.091Z,5.70
2023-04-09T01:34:03.135Z,5.60
2023-04-09T01:35:03.171Z,5.60
2023-04-09T01:36:03.173Z,5.60
2023-04-09T01:37:03.244Z,5.60
2023-04-09T01:38:03.199Z,5.60
2023-04-09T01:39:03.255Z,5.60
2023-04-09T01:40:03.222Z,5.50
2023-04-09T01:41:03.215Z,5.50
2023-04-09T01:42:03.317Z,5.50
2023-04-09T01:43:03.289Z,5.50
2023-04-09T01:44:03.333Z,5.50
2023-04-09T01:45:03.457Z,5.40
2023-04-09T01:46:03.623Z,5.40
2023-04-09T01:47:03.420Z,5.40
2023-04-09T01:48:03.354Z,5.40
2023-04-09T01:49:03.415Z,5.40
2023-04-09T01:50:03.592Z,5.30
2023-04-09T01:51:03.516Z,5.30
2023-04-09T01:52:02.628Z,5.30
2023-04-09T01:53:02.620Z,5.20
2023-04-09T01:54:02.625Z,5.20
2023-04-09T01:55:02.622Z,5.20
2023-04-09T01:56:02.638Z,5.20
2023-04-09T01:57:03.603Z,5.10
2023-04-09T01:58:02.691Z,5.10
2023-04-09T01:59:02.664Z,5.10
2023-04-09T02:00:02.637Z,5.10
2023-04-09T02:01:02.683Z,5.00
2023-04-09T02:02:02.710Z,5.00
2023-04-09T02:03:02.904Z,5.00
2023-04-09T02:04:02.847Z,5.00
2023-04-09T02:05:02.800Z,5.00
2023-04-09T02:06:02.815Z,5.00
2023-04-09T02:07:02.799Z,5.00
2023-04-09T02:08:02.822Z,4.90
2023-04-09T02:09:02.852Z,4.90
2023-04-09T02:10:02.861Z,4.90
2023-04-09T02:11:02.864Z,4.80
2023-04-09T02:12:02.888Z,4.80
2023-04-09T02:13:03.170Z,4.80
2023-04-09T02:14:03.109Z,4.70
2023-04-09T02:15:03.029Z,4.70
2023-04-09T02:16:03.099Z,4.70
2023-04-09T02:17:03.040Z,4.60
2023-04-09T02:18:03.067Z,4.60
2023-04-09T02:19:03.153Z,4.60
2023-04-09T02:20:03.140Z,4.60
2023-04-09T02:21:03.086Z,4.60
2023-04-09T02:22:03.113Z,4.60
2023-04-09T02:23:03.093Z,4.60
2023-04-09T02:24:03.090Z,4.50
2023-04-09T02:25:03.143Z,4.50
2023-04-09T02:26:03.088Z,4.50
2023-04-09T02:27:03.337Z,4.50
2023-04-09T02:28:03.366Z,4.50
2023-04-09T02:29:03.410Z,4.50
2023-04-09T02:30:03.552Z,4.50
2023-04-09T02:31:03.526Z,4.50
2023-04-09T02:32:02.642Z,4.40
2023-04-09T02:33:02.666Z,4.40
2023-04-09T02:34:02.708Z,4.40
2023-04-09T02:35:02.640Z,4.40
2023-04-09T02:36:02.730Z,4.40
2023-04-09T02:37:02.725Z,4.40
2023-04-09T02:38:02.772Z,4.40
2023-04-09T02:39:02.765Z,4.40
2023-04-09T02:40:02.706Z,4.40
2023-04-09T02:41:02.765Z,4.40
2023-04-09T02:42:02.768Z,4.40
2023-04-09T02:43:02.840Z,4.40
2023-04-09T02:44:02.738Z,4.40
2023-04-09T02:45:02.846Z,4.40
2023-04-09T02:46:02.922Z,4.40
2023-04-09T02:47:02.859Z,4.40
2023-04-09T02:48:02.987Z,4.40
2023-04-09T02:49:02.959Z,4.40
2023-04-09T02:50:02.875Z,4.40
2023-04-09T02:51:02.997Z,4.40
2023-04-09T02:52:03.054Z,4.40
2023-04-09T02:53:03.039Z,4.40
2023-04-09T02:54:03.057Z,4.40
2023-04-09T02:55:03.035Z,4.30
2023-04-09T02:56:03.076Z,4.30
2023-04-09T02:57:03.198Z,4.30
2023-04-09T02:58:03.163Z,4.30
2023-04-09T02:59:03.251Z,4.30
2023-04-09T03:00:03.300Z,4.30
2023-04-09T03:01:03.265Z,4.20
2023-04-09T03:02:03.525Z,4.20
2023-04-09T03:03:03.446Z,4.20
2023-04-09T03:04:03.469Z,4.20
2023-04-09T03:05:03.402Z,4.20
2023-04-09T03:06:02.630Z,4.20
2023-04-09T03:07:02.663Z,4.20
2023-04-09T03:08:02.774Z,4.10
2023-04-09T03:09:02.862Z,4.10
2023-04-09T03:10:02.808Z,4.10
2023-04-09T03:11:02.844Z,4.00
2023-04-09T03:12:02.725Z,4.00
2023-04-09T03:13:02.914Z,4.00
2023-04-09T03:14:02.870Z,3.90
2023-04-09T03:15:02.897Z,3.90
2023-04-09T03:16:02.997Z,3.90
2023-04-09T03:17:02.989Z,3.80
2023-04-09T03:18:03.049Z,3.80
2023-04-09T03:19:03.151Z,3.80
2023-04-09T03:20:03.044Z,3.80
2023-04-09T03:21:03.027Z,3.70
2023-04-09T03:22:03.030Z,3.70
2023-04-09T03:23:03.142Z,3.70
2023-04-09T03:24:02.801Z,3.70
2023-04-09T03:25:02.815Z,3.60
2023-04-09T03:26:02.923Z,3.60
2023-04-09T03:27:02.889Z,3.60
2023-04-09T03:28:02.942Z,3.50
2023-04-09T03:29:03.100Z,3.50
2023-04-09T03:30:03.036Z,3.50
2023-04-09T03:31:03.090Z,3.50
2023-04-09T03:32:03.135Z,3.50
2023-04-09T03:33:03.249Z,3.40
2023-04-09T03:34:03.206Z,3.40
2023-04-09T03:35:03.184Z,3.40
2023-04-09T03:36:03.174Z,3.40
2023-04-09T03:37:03.180Z,3.40
2023-04-09T03:38:03.118Z,3.40
2023-04-09T03:39:03.063Z,3.30
2023-04-09T03:40:03.132Z,3.30
2023-04-09T03:41:03.112Z,3.30
2023-04-09T03:42:03.137Z,3.30
2023-04-09T03:43:03.182Z,3.30
2023-04-09T03:44:03.126Z,3.30
2023-04-09T03:45:03.194Z,3.30
2023-04-09T03:46:03.283Z,3.30
2023-04-09T03:47:03.439Z,3.30
2023-04-09T03:48:03.355Z,3.30
2023-04-09T03:49:03.393Z,3.30
2023-04-09T03:50:03.353Z,3.30
2023-04-09T03:51:03.416Z,3.30
2023-04-09T03:52:03.417Z,3.30
2023-04-09T03:53:02.725Z,3.20
2023-04-09T03:54:02.764Z,3.20
2023-04-09T03:55:02.752Z,3.20
2023-04-09T03:56:02.799Z,3.20
2023-04-09T03:57:02.739Z,3.20
2023-04-09T03:58:02.839Z,3.20
2023-04-09T03:59:02.890Z,3.10
2023-04-09T04:00:02.864Z,3.10
2023-04-09T04:01:03.019Z,3.10
2023-04-09T04:02:02.985Z,3.10
2023-04-09T04:03:03.163Z,3.10
2023-04-09T04:04:03.106Z,3.10
2023-04-09T04:05:03.067Z,3.10
2023-04-09T04:06:03.140Z,3.10
2023-04-09T04:07:03.155Z,3.00
2023-04-09T04:08:03.264Z,3.00
2023-04-09T04:09:03.300Z,3.00
2023-04-09T04:10:03.160Z,3.00
2023-04-09T04:11:03.350Z,3.00
2023-04-09T04:12:03.383Z,3.00
2023-04-09T04:13:03.273Z,3.00
2023-04-09T04:14:03.313Z,2.90
2023-04-09T04:15:03.514Z,3.00
2023-04-09T04:16:03.284Z,2.90
2023-04-09T04:17:03.298Z,2.90
2023-04-09T04:18:03.340Z,2.90
2023-04-09T04:19:03.376Z,2.90
2023-04-09T04:20:03.346Z,2.90
2023-04-09T04:21:03.437Z,2.90
2023-04-09T04:22:03.428Z,2.90
2023-04-09T04:23:03.360Z,2.90
2023-04-09T04:24:03.451Z,2.90
2023-04-09T04:25:03.768Z,2.80
2023-04-09T04:26:02.725Z,2.80
2023-04-09T04:27:02.822Z,2.80
2023-04-09T04:28:02.882Z,2.80
2023-04-09T04:29:02.920Z,2.80
2023-04-09T04:30:03.032Z,2.70
2023-04-09T04:31:02.967Z,2.70
2023-04-09T04:32:03.090Z,2.70
2023-04-09T04:33:02.975Z,2.70
2023-04-09T04:34:03.057Z,2.70
2023-04-09T04:35:02.989Z,2.70
2023-04-09T04:36:03.043Z,2.70
2023-04-09T04:37:03.048Z,2.70
2023-04-09T04:38:03.130Z,2.70
2023-04-09T04:39:03.228Z,2.60
2023-04-09T04:40:03.226Z,2.60
2023-04-09T04:41:03.466Z,2.60
2023-04-09T04:42:03.554Z,2.60
2023-04-09T04:43:03.641Z,2.60
2023-04-09T04:44:03.573Z,2.50
2023-04-09T04:45:02.662Z,2.50
2023-04-09T04:46:02.803Z,2.50
2023-04-09T04:47:02.912Z,2.50
2023-04-09T04:48:02.881Z,2.50
2023-04-09T04:49:02.959Z,2.50
2023-04-09T04:50:02.956Z,2.50
2023-04-09T04:51:02.875Z,2.50
2023-04-09T04:52:03.048Z,2.50
2023-04-09T04:53:02.974Z,2.50
2023-04-09T04:54:02.973Z,2.50
2023-04-09T04:55:03.106Z,2.50
2023-04-09T04:56:03.045Z,2.50
2023-04-09T04:57:03.283Z,2.50
2023-04-09T04:58:03.212Z,2.50
2023-04-09T04:59:03.181Z,2.50
2023-04-09T05:00:03.099Z,2.40
2023-04-09T05:01:03.116Z,2.40
2023-04-09T05:02:03.193Z,2.40
2023-04-09T05:03:03.323Z,2.40
2023-04-09T05:04:03.337Z,2.40
2023-04-09T05:05:03.361Z,2.40
2023-04-09T05:06:03.206Z,2.40
2023-04-09T05:07:03.231Z,2.40
2023-04-09T05:08:03.090Z,2.40
2023-04-09T05:09:03.205Z,2.40
2023-04-09T05:10:03.367Z,2.40
2023-04-09T05:11:03.374Z,2.40
2023-04-09T05:12:03.514Z,2.40
2023-04-09T05:13:03.576Z,2.40
2023-04-09T05:14:02.720Z,2.40
2023-04-09T05:15:02.662Z,2.50
2023-04-09T05:16:02.819Z,2.50
2023-04-09T05:17:02.906Z,2.50
2023-04-09T05:18:02.756Z,2.50
2023-04-09T05:19:02.734Z,2.50
2023-04-09T05:20:02.837Z,2.60
2023-04-09T05:21:02.873Z,2.60
2023-04-09T05:22:02.918Z,2.70
2023-04-09T05:23:02.994Z,2.70
2023-04-09T05:24:03.020Z,2.80
2023-04-09T05:25:03.149Z,2.90
2023-04-09T05:26:03.044Z,3.00
2023-04-09T05:27:03.280Z,3.00
2023-04-09T05:28:03.389Z,3.10
2023-04-09T05:29:03.368Z,3.20
2023-04-09T05:30:03.395Z,3.20
2023-04-09T05:31:03.459Z,3.30
2023-04-09T05:32:03.341Z,3.40
2023-04-09T05:33:03.230Z,3.50
2023-04-09T05:34:03.305Z,3.60
2023-04-09T05:35:03.294Z,3.70
2023-04-09T05:36:03.416Z,3.80
2023-04-09T05:37:03.453Z,3.90
2023-04-09T05:38:03.580Z,4.00
2023-04-09T05:39:02.635Z,4.10
2023-04-09T05:40:02.728Z,4.20
2023-04-09T05:41:02.916Z,4.30
2023-04-09T05:42:02.783Z,4.40
2023-04-09T05:43:02.783Z,4.50
2023-04-09T05:44:02.804Z,4.60
2023-04-09T05:45:02.894Z,4.70
2023-04-09T05:46:02.948Z,4.80
2023-04-09T05:47:02.980Z,4.80
2023-04-09T05:48:03.064Z,4.90
2023-04-09T05:49:03.079Z,4.90
2023-04-09T05:50:02.825Z,5.00
2023-04-09T05:51:02.853Z,5.00
2023-04-09T05:52:02.996Z,5.00
2023-04-09T05:53:02.964Z,5.10
2023-04-09T05:54:02.900Z,5.10
2023-04-09T05:55:02.997Z,5.10
2023-04-09T05:56:03.046Z,5.10
2023-04-09T05:57:03.152Z,5.10
2023-04-09T05:58:03.185Z,5.10
2023-04-09T05:59:03.174Z,5.10
2023-04-09T06:00:03.316Z,5.00
2023-04-09T06:01:03.193Z,5.00
2023-04-09T06:02:03.210Z,5.00
2023-04-09T06:03:03.472Z,4.90
2023-04-09T06:04:03.845Z,4.80
2023-04-09T06:05:03.461Z,4.80
2023-04-09T06:06:03.433Z,4.70
2023-04-09T06:07:03.569Z,4.70
2023-04-09T06:08:03.538Z,4.70
2023-04-09T06:09:03.580Z,4.60
2023-04-09T06:10:03.617Z,4.60
2023-04-09T06:11:02.722Z,4.50
2023-04-09T06:12:02.766Z,4.50
2023-04-09T06:13:02.828Z,4.40
2023-04-09T06:14:02.850Z,4.40
2023-04-09T06:15:02.749Z,4.30
2023-04-09T06:16:02.852Z,4.30
2023-04-09T06:17:02.863Z,4.30
2023-04-09T06:18:02.965Z,4.30
2023-04-09T06:19:02.951Z,4.30
2023-04-09T06:20:02.949Z,4.30
2023-04-09T06:21:03.034Z,4.30
2023-04-09T06:22:03.972Z,4.20
2023-04-09T06:23:02.947Z,4.30
2023-04-09T06:24:03.068Z,4.30
2023-04-09T06:25:03.033Z,4.30
2023-04-09T06:26:03.103Z,4.30
2023-04-09T06:27:03.072Z,4.30
2023-04-09T06:28:03.098Z,4.30
2023-04-09T06:29:03.108Z,4.30
2023-04-09T06:30:03.138Z,4.30
2023-04-09T06:31:03.127Z,4.40
2023-04-09T06:32:03.140Z,4.40
2023-04-09T06:33:03.202Z,4.40
2023-04-09T06:34:03.226Z,4.50
2023-04-09T06:35:03.147Z,4.50
2023-04-09T06:36:03.242Z,4.50
2023-04-09T06:37:03.330Z,4.50
2023-04-09T06:38:03.327Z,4.60
2023-04-09T06:39:03.313Z,4.60
2023-04-09T06:40:03.343Z,4.60
2023-04-09T06:41:03.588Z,4.70
2023-04-09T06:42:03.482Z,4.70
2023-04-09T06:43:03.563Z,4.70
2023-04-09T06:44:03.493Z,4.80
2023-04-09T06:45:03.449Z,4.80
2023-04-09T06:46:02.658Z,4.80
2023-04-09T06:47:02.712Z,4.80
2023-04-09T06:48:02.866Z,4.80
2023-04-09T06:49:02.812Z,4.90
2023-04-09T06:50:02.762Z,4.90
2023-04-09T06:51:02.749Z,4.90
2023-04-09T06:52:03.078Z,5.00
2023-04-09T06:53:02.817Z,5.00
2023-04-09T06:54:02.751Z,5.00
2023-04-09T06:55:02.997Z,5.10
2023-04-09T06:56:02.856Z,5.10
2023-04-09T06:57:02.785Z,5.10
2023-04-09T06:58:02.839Z,5.20
2023-04-09T06:59:02.886Z,5.30
2023-04-09T07:00:02.785Z,5.30
2023-04-09T07:01:02.937Z,5.40
2023-04-09T07:02:02.886Z,5.50
2023-04-09T07:03:02.954Z,5.60
2023-04-09T07:04:03.029Z,5.60
2023-04-09T07:05:02.983Z,5.60
2023-04-09T07:06:03.013Z,5.70
2023-04-09T07:07:03.042Z,5.70
2023-04-09T07:08:02.991Z,5.80
2023-04-09T07:09:02.989Z,5.80
2023-04-09T07:10:02.927Z,5.90
2023-04-09T07:11:02.906Z,6.00
2023-04-09T07:12:02.923Z,6.10
2023-04-09T07:13:02.928Z,6.20
2023-04-09T07:14:02.882Z,6.20
2023-04-09T07:15:02.875Z,6.40
2023-04-09T07:16:02.875Z,6.50
2023-04-09T07:17:02.937Z,6.60
2023-04-09T07:18:02.935Z,6.70
2023-04-09T07:19:03.064Z,6.80
2023-04-09T07:20:03.095Z,6.90
2023-04-09T07:21:03.446Z,7.00
2023-04-09T07:22:03.313Z,7.10
2023-04-09T07:23:03.292Z,7.20
2023-04-09T07:24:03.324Z,7.30
2023-04-09T07:25:03.452Z,7.40
2023-04-09T07:26:03.251Z,7.50
2023-04-09T07:27:03.293Z,7.50
2023-04-09T07:28:03.420Z,7.60
2023-04-09T07:29:03.494Z,7.70
2023-04-09T07:30:03.637Z,7.80
2023-04-09T07:31:03.505Z,7.90
2023-04-09T07:32:03.537Z,7.90
2023-04-09T07:33:03.523Z,8.00
2023-04-09T07:34:03.447Z,8.10
2023-04-09T07:35:03.533Z,8.10
2023-04-09T07:36:03.563Z,8.20
2023-04-09T07:37:03.639Z,8.20
2023-04-09T07:38:03.531Z,8.30
2023-04-09T07:39:02.682Z,8.30
2023-04-09T07:40:02.653Z,8.40
2023-04-09T07:41:02.658Z,8.40
2023-04-09T07:42:02.677Z,8.50
2023-04-09T07:43:02.792Z,8.60
2023-04-09T07:44:02.733Z,8.60
2023-04-09T07:45:02.729Z,8.70
2023-04-09T07:46:02.828Z,8.80
2023-04-09T07:47:03.037Z,8.80
2023-04-09T07:48:03.027Z,8.90
2023-04-09T07:49:03.017Z,8.90
2023-04-09T07:50:02.945Z,9.00
2023-04-09T07:51:03.131Z,9.00
2023-04-09T07:52:02.953Z,9.10
2023-04-09T07:53:02.949Z,9.10
2023-04-09T07:54:02.977Z,9.10
2023-04-09T07:55:02.990Z,9.20
2023-04-09T07:56:02.944Z,9.20
2023-04-09T07:57:03.105Z,9.30
2023-04-09T07:58:03.015Z,9.30
2023-04-09T07:59:03.049Z,9.30
2023-04-09T08:00:03.194Z,9.40
2023-04-09T08:01:03.267Z,9.40
2023-04-09T08:02:03.450Z,9.40
2023-04-09T08:03:03.531Z,9.40
2023-04-09T08:04:03.525Z,9.40
2023-04-09T08:05:03.518Z,9.50
2023-04-09T08:06:03.556Z,9.50
2023-04-09T08:07:02.663Z,9.60
2023-04-09T08:08:02.888Z,9.60
2023-04-09T08:09:02.737Z,9.60
2023-04-09T08:10:02.915Z,9.70
2023-04-09T08:11:02.977Z,9.70
2023-04-09T08:12:02.902Z,9.60
2023-04-09T08:13:03.009Z,9.60
2023-04-09T08:14:03.003Z,9.60
2023-04-09T08:15:03.063Z,9.70
2023-04-09T08:16:03.102Z,9.70
2023-04-09T08:17:03.013Z,9.70
2023-04-09T08:18:03.016Z,9.70
2023-04-09T08:19:02.970Z,9.70
2023-04-09T08:20:03.023Z,9.80
2023-04-09T08:21:02.983Z,9.80
2023-04-09T08:22:03.064Z,9.80
2023-04-09T08:23:03.049Z,9.90
2023-04-09T08:24:03.025Z,9.90
2023-04-09T08:25:03.100Z,9.90
2023-04-09T08:26:03.050Z,9.90
2023-04-09T08:27:03.079Z,10.00
2023-04-09T08:28:03.278Z,10.00
2023-04-09T08:29:03.207Z,10.10
2023-04-09T08:30:03.459Z,10.10
2023-04-09T08:31:03.459Z,10.20
2023-04-09T08:32:03.387Z,10.20
2023-04-09T08:33:03.499Z,10.20
2023-04-09T08:34:03.484Z,10.30
2023-04-09T08:35:03.491Z,10.30
2023-04-09T08:36:03.407Z,10.40
2023-04-09T08:37:02.736Z,10.40
2023-04-09T08:38:02.828Z,10.40
2023-04-09T08:39:02.785Z,10.50
2023-04-09T08:40:02.948Z,10.50
2023-04-09T08:41:03.186Z,10.50
2023-04-09T08:42:03.303Z,10.50
2023-04-09T08:43:03.385Z,10.60
2023-04-09T08:44:03.300Z,10.60
2023-04-09T08:45:03.487Z,10.60
2023-04-09T08:46:03.637Z,10.60
2023-04-09T08:47:03.612Z,10.70
2023-04-09T08:48:02.760Z,10.70
2023-04-09T08:49:02.816Z,10.70
2023-04-09T08:50:02.810Z,10.70
2023-04-09T08:51:02.896Z,10.80
2023-04-09T08:52:03.013Z,10.80
2023-04-09T08:53:03.072Z,10.80
2023-04-09T08:54:04.545Z,10.80
2023-04-09T08:55:03.134Z,10.80
2023-04-09T08:56:03.020Z,10.80
2023-04-09T08:57:02.972Z,10.90
2023-04-09T08:58:02.943Z,10.90
2023-04-09T08:59:03.042Z,10.90
2023-04-09T09:00:02.979Z,10.90
2023-04-09T09:01:03.035Z,11.00
2023-04-09T09:02:03.155Z,11.00
2023-04-09T09:03:03.220Z,11.00
2023-04-09T09:04:03.248Z,11.00
2023-04-09T09:05:03.092Z,11.10
2023-04-09T09:06:03.402Z,11.10
2023-04-09T09:07:03.288Z,11.10
2023-04-09T09:08:03.321Z,11.10
2023-04-09T09:09:03.315Z,11.10
2023-04-09T09:10:03.442Z,11.20
2023-04-09T09:11:03.504Z,11.20
2023-04-09T09:12:03.522Z,11.20
2023-04-09T09:13:03.670Z,11.30
2023-04-09T09:14:02.705Z,11.30
2023-04-09T09:15:03.637Z,11.40
2023-04-09T09:16:03.640Z,11.40
2023-04-09T09:17:02.700Z,11.40
2023-04-09T09:18:02.772Z,11.50
2023-04-09T09:19:02.720Z,11.50
2023-04-09T09:20:02.773Z,11.50
2023-04-09T09:21:02.832Z,11.50
2023-04-09T09:22:02.934Z,11.60
2023-04-09T09:23:03.082Z,11.60
2023-04-09T09:24:03.221Z,11.60
2023-04-09T09:25:03.212Z,11.60
2023-04-09T09:26:03.186Z,11.60
2023-04-09T09:27:03.224Z,11.60
2023-04-09T09:28:03.054Z,11.60
2023-04-09T09:29:03.151Z,11.60
2023-04-09T09:30:03.154Z,11.60
2023-04-09T09:31:03.166Z,11.60
2023-04-09T09:32:03.130Z,11.60
2023-04-09T09:33:03.047Z,11.60
2023-04-09T09:34:03.006Z,11.60
2023-04-09T09:35:03.087Z,11.60
2023-04-09T09:36:02.994Z,11.60
2023-04-09T09:37:02.959Z,11.60
2023-04-09T09:38:03.282Z,11.60
2023-04-09T09:39:03.157Z,11.60
2023-04-09T09:40:03.439Z,11.60
2023-04-09T09:41:03.400Z,11.60
2023-04-09T09:42:03.363Z,11.60
2023-04-09T09:43:03.310Z,11.70
2023-04-09T09:44:03.338Z,11.70
2023-04-09T09:45:03.465Z,11.70
2023-04-09T09:46:03.440Z,11.70
2023-04-09T09:47:03.499Z,11.70
2023-04-09T09:48:02.667Z,11.80
2023-04-09T09:49:02.793Z,11.80
2023-04-09T09:50:02.803Z,11.80
2023-04-09T09:51:02.833Z,11.80
2023-04-09T09:52:02.809Z,11.80
2023-04-09T09:53:02.886Z,11.90
2023-04-09T09:54:02.829Z,11.90
2023-04-09T09:55:02.763Z,11.90
2023-04-09T09:56:02.823Z,12.00
2023-04-09T09:57:02.764Z,12.00
2023-04-09T09:58:02.754Z,12.00
2023-04-09T09:59:02.701Z,12.10
2023-04-09T10:00:02.852Z,12.10
2023-04-09T10:01:02.897Z,12.10
2023-04-09T10:02:02.985Z,12.10
2023-04-09T10:03:03.027Z,12.10
2023-04-09T10:04:03.076Z,12.20
2023-04-09T10:05:03.134Z,12.20
2023-04-09T10:06:03.287Z,12.20
2023-04-09T10:07:03.382Z,12.20
2023-04-09T10:08:03.478Z,12.20
2023-04-09T10:09:03.409Z,12.20
2023-04-09T10:10:03.597Z,12.20
2023-04-09T10:11:02.626Z,12.10
2023-04-09T10:12:02.760Z,12.10
2023-04-09T10:13:02.747Z,12.10
2023-04-09T10:14:02.749Z,12.10
2023-04-09T10:15:02.762Z,12.10
2023-04-09T10:16:02.765Z,12.10
2023-04-09T10:17:03.638Z,12.10
2023-04-09T10:18:02.784Z,12.10
2023-04-09T10:19:02.743Z,12.10
2023-04-09T10:20:02.789Z,12.10
2023-04-09T10:21:02.667Z,12.10
2023-04-09T10:22:02.746Z,12.10
2023-04-09T10:23:02.814Z,12.20
2023-04-09T10:24:02.794Z,12.20
2023-04-09T10:25:02.925Z,12.20
2023-04-09T10:26:02.862Z,12.20
2023-04-09T10:27:02.893Z,12.20
2023-04-09T10:28:02.797Z,12.30
2023-04-09T10:29:02.786Z,12.30
2023-04-09T10:30:02.769Z,12.30
2023-04-09T10:31:02.834Z,12.40
2023-04-09T10:32:02.778Z,12.40
2023-04-09T10:33:02.776Z,12.40
2023-04-09T10:34:02.762Z,12.50
2023-04-09T10:35:02.928Z,12.50
2023-04-09T10:36:03.075Z,12.50
2023-04-09T10:37:02.993Z,12.50
2023-04-09T10:38:03.041Z,12.60
2023-04-09T10:39:02.955Z,12.60
2023-04-09T10:40:03.090Z,12.60
2023-04-09T10:41:02.968Z,12.60
2023-04-09T10:42:03.119Z,12.60
2023-04-09T10:43:03.249Z,12.60
2023-04-09T10:44:03.301Z,12.70
2023-04-09T10:45:03.476Z,12.60
2023-04-09T10:46:03.531Z,12.70
2023-04-09T10:47:03.576Z,12.70
2023-04-09T10:48:03.585Z,12.60
2023-04-09T10:49:02.712Z,12.70
2023-04-09T10:50:02.698Z,12.70
2023-04-09T10:51:02.657Z,12.70
2023-04-09T10:52:03.669Z,12.70
2023-04-09T10:53:03.583Z,12.70
2023-04-09T10:54:02.710Z,12.70
2023-04-09T10:55:02.631Z,12.70
2023-04-09T10:56:02.680Z,12.70
2023-04-09T10:57:02.778Z,12.70
2023-04-09T10:58:02.787Z,12.70
2023-04-09T10:59:02.774Z,12.70
2023-04-09T11:00:02.985Z,12.70
2023-04-09T11:01:02.983Z,12.80
2023-04-09T11:02:02.847Z,12.70
2023-04-09T11:03:02.970Z,12.70
2023-04-09T11:04:02.896Z,12.80
2023-04-09T11:05:02.973Z,12.70
2023-04-09T11:06:03.134Z,12.80
2023-04-09T11:07:03.155Z,12.80
2023-04-09T11:08:03.275Z,12.80
2023-04-09T11:09:03.312Z,12.80
2023-04-09T11:10:03.393Z,12.80
2023-04-09T11:11:03.372Z,12.70
2023-04-09T11:12:03.324Z,12.80
2023-04-09T11:13:03.372Z,12.80
2023-04-09T11:14:03.285Z,12.80
2023-04-09T11:15:03.418Z,12.80
2023-04-09T11:16:03.602Z,12.80
2023-04-09T11:17:03.485Z,12.80
2023-04-09T11:18:03.603Z,12.80
2023-04-09T11:19:02.652Z,12.80
2023-04-09T11:20:02.689Z,12.80
2023-04-09T11:21:02.665Z,12.80
2023-04-09T11:22:02.683Z,12.90
2023-04-09T11:23:02.762Z,12.90
2023-04-09T11:24:03.581Z,12.90
2023-04-09T11:25:03.565Z,12.90
2023-04-09T11:26:02.734Z,12.90
2023-04-09T11:27:02.689Z,12.90
2023-04-09T11:28:02.753Z,12.90
2023-04-09T11:29:02.779Z,12.90
2023-04-09T11:30:02.704Z,13.00
2023-04-09T11:31:02.666Z,13.00
2023-04-09T11:32:02.646Z,13.00
2023-04-09T11:33:03.537Z,13.10
2023-04-09T11:34:03.584Z,13.10
2023-04-09T11:35:03.726Z,13.10
2023-04-09T11:36:02.776Z,13.10
2023-04-09T11:37:02.815Z,13.10
2023-04-09T11:38:02.894Z,13.10
2023-04-09T11:39:02.868Z,13.10
2023-04-09T11:40:03.411Z,13.20
2023-04-09T11:41:03.497Z,13.20
2023-04-09T11:42:03.537Z,13.20
2023-04-09T11:43:02.617Z,13.20
2023-04-09T11:44:03.128Z,13.20
2023-04-09T11:45:03.119Z,13.20
2023-04-09T11:46:03.123Z,13.20
2023-04-09T11:47:03.239Z,13.20
2023-04-09T11:48:03.269Z,13.20
2023-04-09T11:49:03.183Z,13.20
2023-04-09T11:50:02.857Z,13.20
2023-04-09T11:51:02.992Z,13.30
2023-04-09T11:52:03.054Z,13.30
2023-04-09T11:53:02.988Z,13.30
2023-04-09T11:54:03.009Z,13.30
2023-04-09T11:55:03.036Z,13.30
2023-04-09T11:56:03.007Z,13.30
2023-04-09T11:57:03.098Z,13.40
2023-04-09T11:58:03.081Z,13.40
2023-04-09T11:59:03.049Z,13.40
2023-04-09T12:00:04.660Z,13.40
2023-04-09T12:01:03.040Z,13.40
2023-04-09T12:02:03.188Z,13.40
2023-04-09T12:03:03.419Z,13.40
2023-04-09T12:04:03.263Z,13.40
2023-04-09T12:05:03.270Z,13.40
2023-04-09T12:06:03.416Z,13.40
2023-04-09T12:07:03.239Z,13.40
2023-04-09T12:08:03.358Z,13.40
2023-04-09T12:09:03.436Z,13.40
2023-04-09T12:10:03.515Z,13.50
2023-04-09T12:11:03.633Z,13.50
2023-04-09T12:12:03.534Z,13.50
2023-04-09T12:13:03.629Z,13.50
2023-04-09T12:14:02.638Z,13.50
2023-04-09T12:15:03.604Z,13.50
2023-04-09T12:16:03.723Z,13.50
2023-04-09T12:17:03.786Z,13.60
2023-04-09T12:18:02.833Z,13.60
2023-04-09T12:19:02.795Z,13.60
2023-04-09T12:20:02.913Z,13.70
2023-04-09T12:21:02.926Z,13.70
2023-04-09T12:22:03.037Z,13.70
2023-04-09T12:23:03.008Z,13.70
2023-04-09T12:24:02.980Z,13.80
2023-04-09T12:25:02.968Z,13.80
2023-04-09T12:26:03.048Z,13.80
2023-04-09T12:27:03.207Z,13.80
2023-04-09T12:28:03.341Z,13.80
2023-04-09T12:29:03.468Z,13.90
2023-04-09T12:30:03.453Z,13.80
2023-04-09T12:31:03.308Z,13.90
2023-04-09T12:32:03.338Z,13.90
2023-04-09T12:33:03.318Z,13.90
2023-04-09T12:34:03.389Z,14.00
2023-04-09T12:35:03.383Z,14.00
2023-04-09T12:36:03.393Z,14.00
2023-04-09T12:37:03.409Z,14.00
2023-04-09T12:38:03.376Z,14.00
2023-04-09T12:39:03.489Z,14.00
2023-04-09T12:40:03.452Z,14.00
2023-04-09T12:41:03.502Z,14.00
2023-04-09T12:42:03.436Z,14.00
2023-04-09T12:43:03.520Z,14.00
2023-04-09T12:44:03.547Z,14.00
2023-04-09T12:45:03.571Z,14.00
2023-04-09T12:46:03.644Z,14.00
2023-04-09T12:47:03.629Z,14.00
2023-04-09T12:48:02.734Z,14.00
2023-04-09T12:49:02.745Z,14.00
2023-04-09T12:50:02.767Z,14.00
2023-04-09T12:51:02.816Z,14.00
2023-04-09T12:52:02.914Z,14.00
2023-04-09T12:53:03.103Z,14.00
2023-04-09T12:54:03.041Z,14.00
2023-04-09T12:55:03.061Z,14.00
2023-04-09T12:56:03.120Z,14.00
2023-04-09T12:57:03.022Z,14.00
2023-04-09T12:58:03.030Z,14.10
2023-04-09T12:59:03.071Z,14.10
2023-04-09T13:00:03.011Z,14.10
2023-04-09T13:01:03.154Z,14.10
2023-04-09T13:02:03.212Z,14.10
2023-04-09T13:03:03.334Z,14.20
2023-04-09T13:04:03.200Z,14.20
2023-04-09T13:05:03.149Z,14.20
2023-04-09T13:06:03.289Z,14.20
2023-04-09T13:07:03.228Z,14.20
2023-04-09T13:08:03.296Z,14.20
2023-04-09T13:09:03.246Z,14.20